Terminal Aerodrome Forecast
Issued by NWS

Home | Current Version | Previous Version | Text Only | Print | Product List | Glossary On
Versions: 1 2 3 4 5 6 7 8 9 10 11 12 13 14 15 16 17 18 19
000
FTUS45 KRIW 291500 AAC
TAFCPR
TAF AMD
KCPR 291500Z 2915/3012 36005KT P6SM SCT007 BKN013
      TEMPO 2915/2916 BKN007
     FM291600 VRB06KT P6SM FEW015 SCT100
     FM292000 VRB06KT P6SM VCTS SCT050CB BKN100
     FM300300 VRB06KT P6SM SCT090
     FM300600 24008KT P6SM SCT100=

USA.gov is the U.S. government's official web portal to all federal, state and local government web resources and services.